createdAt,value
2022-11-02T00:02:10.936Z,10.10
2022-11-02T00:04:37.586Z,10.10
2022-11-02T00:07:04.235Z,10.10
2022-11-02T00:09:30.880Z,10.10
2022-11-02T00:11:57.501Z,10.00
2022-11-02T00:14:24.201Z,10.00
2022-11-02T00:16:51.183Z,10.00
2022-11-02T00:19:18.044Z,10.00
2022-11-02T00:21:44.852Z,10.00
2022-11-02T00:24:12.363Z,10.00
2022-11-02T00:26:39.105Z,10.00
2022-11-02T00:29:06.508Z,9.90
2022-11-02T00:31:33.286Z,9.90
2022-11-02T00:33:59.909Z,9.90
2022-11-02T00:36:27.789Z,9.90
2022-11-02T00:38:54.489Z,9.90
2022-11-02T00:41:22.148Z,9.90
2022-11-02T00:43:48.802Z,9.80
2022-11-02T00:46:15.475Z,9.80
2022-11-02T00:48:42.107Z,9.80
2022-11-02T00:51:08.721Z,9.80
2022-11-02T00:53:35.346Z,9.80
2022-11-02T00:56:01.992Z,9.80
2022-11-02T00:58:28.600Z,9.80
2022-11-02T01:00:56.511Z,9.90
2022-11-02T01:03:23.136Z,9.90
2022-11-02T01:05:49.878Z,9.90
2022-11-02T01:08:16.492Z,9.90
2022-11-02T01:10:45.652Z,9.90
2022-11-02T01:13:15.896Z,9.80
2022-11-02T01:15:43.122Z,9.90
2022-11-02T01:18:09.779Z,9.90
2022-11-02T01:20:36.405Z,9.90
2022-11-02T01:23:03.088Z,9.90
2022-11-02T01:25:29.682Z,9.90
2022-11-02T01:27:56.337Z,9.90
2022-11-02T01:30:22.943Z,10.00
2022-11-02T01:32:49.560Z,10.00
2022-11-02T01:35:16.758Z,10.00
2022-11-02T01:37:43.517Z,10.00
2022-11-02T01:40:10.562Z,10.00
2022-11-02T01:42:37.192Z,10.00
2022-11-02T01:45:04.165Z,10.10
2022-11-02T01:47:36.117Z,10.10
2022-11-02T01:50:25.823Z,10.10
2022-11-02T01:52:52.973Z,10.00
2022-11-02T01:55:27.391Z,10.00
2022-11-02T01:57:59.014Z,10.00
2022-11-02T02:00:25.720Z,10.00
2022-11-02T02:03:16.724Z,10.00
2022-11-02T02:06:08.726Z,10.00
2022-11-02T02:08:39.179Z,9.90
2022-11-02T02:11:29.423Z,9.90
2022-11-02T02:13:59.452Z,9.90
2022-11-02T02:16:33.607Z,9.90
2022-11-02T02:19:04.876Z,9.80
2022-11-02T02:21:46.243Z,9.80
2022-11-02T02:24:22.146Z,9.80
2022-11-02T02:27:05.693Z,9.80
2022-11-02T02:29:57.190Z,9.80
2022-11-02T02:32:49.213Z,9.80
2022-11-02T02:35:33.630Z,9.80
2022-11-02T02:38:14.144Z,9.80
2022-11-02T02:41:14.317Z,9.80
2022-11-02T02:43:46.110Z,9.80
2022-11-02T02:46:20.541Z,9.80
2022-11-02T02:48:49.020Z,9.80
2022-11-02T02:51:22.014Z,9.80
2022-11-02T02:54:04.400Z,9.80
2022-11-02T02:56:39.325Z,9.80
2022-11-02T02:59:18.606Z,9.90
2022-11-02T03:01:46.136Z,9.80
2022-11-02T03:04:13.683Z,9.80
2022-11-02T03:06:43.246Z,9.80
2022-11-02T03:09:39.992Z,9.80
2022-11-02T03:12:25.185Z,9.70
2022-11-02T03:15:11.013Z,9.60
2022-11-02T03:18:03.580Z,9.70
2022-11-02T03:20:43.510Z,9.70
2022-11-02T03:23:37.470Z,9.60
2022-11-02T03:26:26.989Z,9.60
2022-11-02T03:29:21.912Z,9.60
2022-11-02T03:31:55.463Z,9.80
2022-11-02T03:34:35.129Z,9.80
2022-11-02T03:37:24.249Z,9.90
2022-11-02T03:39:55.281Z,9.90
2022-11-02T03:42:27.065Z,9.90
2022-11-02T03:45:16.591Z,10.00
2022-11-02T03:47:47.071Z,10.00
2022-11-02T03:50:17.445Z,10.10
2022-11-02T03:52:47.073Z,10.10
2022-11-02T03:55:22.466Z,10.20
2022-11-02T03:57:51.060Z,10.20
2022-11-02T04:00:24.004Z,10.20
2022-11-02T04:02:54.445Z,10.30
2022-11-02T04:05:31.060Z,10.30
2022-11-02T04:08:16.929Z,10.30
2022-11-02T04:11:02.153Z,10.40
2022-11-02T04:13:47.976Z,10.40
2022-11-02T04:16:15.417Z,10.40
2022-11-02T04:19:00.672Z,10.50
2022-11-02T04:21:28.050Z,10.50
2022-11-02T04:24:13.228Z,10.50
2022-11-02T04:26:39.882Z,10.50
2022-11-02T04:29:06.508Z,10.50
2022-11-02T04:31:33.128Z,10.60
2022-11-02T04:34:00.050Z,10.60
2022-11-02T04:36:29.527Z,10.60
2022-11-02T04:38:56.265Z,10.60
2022-11-02T04:41:42.103Z,10.60
2022-11-02T04:44:10.535Z,10.50
2022-11-02T04:46:38.694Z,10.50
2022-11-02T04:49:06.160Z,10.40
2022-11-02T04:51:33.244Z,10.40
2022-11-02T04:54:00.209Z,10.40
2022-11-02T04:56:28.495Z,10.30
2022-11-02T04:58:57.468Z,10.30
2022-11-02T05:01:26.539Z,10.30
2022-11-02T05:03:54.260Z,10.20
2022-11-02T05:06:22.806Z,10.20
2022-11-02T05:08:49.634Z,10.20
2022-11-02T05:11:16.609Z,10.20
2022-11-02T05:13:44.614Z,10.10
2022-11-02T05:16:17.554Z,10.10
2022-11-02T05:18:44.356Z,10.10
2022-11-02T05:21:12.260Z,10.00
2022-11-02T05:23:39.408Z,10.00
2022-11-02T05:26:11.765Z,10.00
2022-11-02T05:28:38.685Z,10.00
2022-11-02T05:31:05.457Z,10.00
2022-11-02T05:33:32.903Z,10.00
2022-11-02T05:36:00.263Z,10.00
2022-11-02T05:38:27.797Z,10.00
2022-11-02T05:40:56.417Z,10.00
2022-11-02T05:43:23.976Z,10.00
2022-11-02T05:45:58.745Z,10.10
2022-11-02T05:48:26.806Z,10.00
2022-11-02T05:50:57.971Z,10.00
2022-11-02T05:53:25.605Z,10.00
2022-11-02T05:55:52.796Z,9.90
2022-11-02T05:58:19.430Z,9.90
2022-11-02T06:00:46.038Z,9.90
2022-11-02T06:03:12.631Z,9.90
2022-11-02T06:05:39.329Z,9.90
2022-11-02T06:08:05.978Z,9.80
2022-11-02T06:10:32.616Z,9.80
2022-11-02T06:13:01.289Z,9.80
2022-11-02T06:15:29.621Z,9.80
2022-11-02T06:17:56.300Z,9.80
2022-11-02T06:20:23.513Z,9.80
2022-11-02T06:22:50.641Z,9.70
2022-11-02T06:25:17.636Z,9.70
2022-11-02T06:27:56.111Z,9.80
2022-11-02T06:30:26.214Z,9.70
2022-11-02T06:32:54.520Z,9.80
2022-11-02T06:35:22.558Z,9.90
2022-11-02T06:37:49.315Z,9.90
2022-11-02T06:40:17.109Z,9.90
2022-11-02T06:42:56.534Z,10.00
2022-11-02T06:45:31.830Z,10.00
2022-11-02T06:47:58.593Z,10.00
2022-11-02T06:50:25.228Z,10.00
2022-11-02T06:52:52.273Z,10.00
2022-11-02T06:55:19.137Z,10.10
2022-11-02T06:57:45.915Z,10.10
2022-11-02T07:00:20.770Z,10.10
2022-11-02T07:03:04.385Z,10.20
2022-11-02T07:05:31.989Z,10.30
2022-11-02T07:07:59.073Z,10.40
2022-11-02T07:10:26.763Z,10.50
2022-11-02T07:12:55.222Z,10.50
2022-11-02T07:15:23.916Z,10.60
2022-11-02T07:17:50.940Z,10.70
2022-11-02T07:20:18.155Z,10.80
2022-11-02T07:22:59.013Z,10.90
2022-11-02T07:25:27.395Z,11.00
2022-11-02T07:27:54.446Z,11.20
2022-11-02T07:30:21.089Z,11.30
2022-11-02T07:32:47.744Z,11.40
2022-11-02T07:35:15.903Z,11.50
2022-11-02T07:37:42.630Z,11.60
2022-11-02T07:40:11.574Z,11.70
2022-11-02T07:42:46.503Z,11.90
2022-11-02T07:45:13.429Z,12.10
2022-11-02T07:47:45.027Z,12.20
2022-11-02T07:50:13.056Z,12.30
2022-11-02T07:52:45.924Z,12.40
2022-11-02T07:55:14.032Z,12.60
2022-11-02T07:57:40.784Z,12.60
2022-11-02T08:00:07.944Z,12.80
2022-11-02T08:02:34.609Z,13.00
2022-11-02T08:05:01.303Z,13.40
2022-11-02T08:07:27.921Z,13.80
2022-11-02T08:09:54.552Z,14.30
2022-11-02T08:12:21.155Z,15.00
2022-11-02T08:14:47.798Z,15.90
2022-11-02T08:17:14.453Z,16.80
2022-11-02T08:19:41.075Z,17.80
2022-11-02T08:22:08.317Z,18.80
2022-11-02T08:24:35.049Z,19.10
2022-11-02T08:27:01.845Z,19.90
2022-11-02T08:29:28.502Z,20.30
2022-11-02T08:31:55.233Z,20.70
2022-11-02T08:34:21.861Z,21.00
2022-11-02T08:36:48.483Z,21.40
2022-11-02T08:39:18.823Z,21.90
2022-11-02T08:41:45.844Z,22.50
2022-11-02T08:44:12.462Z,22.70
2022-11-02T08:46:39.068Z,23.20
2022-11-02T08:49:05.687Z,24.20
2022-11-02T08:51:32.318Z,24.40
2022-11-02T08:53:59.274Z,25.30
2022-11-02T08:56:25.887Z,25.90
2022-11-02T08:58:52.733Z,26.50
2022-11-02T09:01:19.394Z,26.90
2022-11-02T09:03:46.052Z,27.60
2022-11-02T09:06:12.705Z,28.10
2022-11-02T09:08:39.324Z,28.50
2022-11-02T09:11:06.225Z,29.20
2022-11-02T09:13:32.954Z,29.50
2022-11-02T09:16:01.625Z,29.50
2022-11-02T09:18:28.591Z,29.80
2022-11-02T09:20:55.286Z,30.40
2022-11-02T09:23:22.375Z,30.60
2022-11-02T09:25:49.928Z,30.30
2022-11-02T09:28:16.815Z,30.50
2022-11-02T09:30:43.686Z,30.30
2022-11-02T09:33:10.684Z,29.80
2022-11-02T09:35:39.976Z,30.20
2022-11-02T09:38:07.118Z,29.70
2022-11-02T09:41:04.587Z,29.10
2022-11-02T09:43:36.947Z,28.50
2022-11-02T09:46:31.729Z,29.30
2022-11-02T09:49:05.308Z,30.20
2022-11-02T09:51:33.855Z,30.20
2022-11-02T09:54:06.648Z,29.90
2022-11-02T09:56:35.568Z,29.60
2022-11-02T09:59:25.036Z,30.30
2022-11-02T10:02:01.030Z,30.40
2022-11-02T10:04:33.721Z,30.30
2022-11-02T10:07:15.847Z,30.40
2022-11-02T10:09:57.730Z,31.70
2022-11-02T10:12:39.641Z,32.80
2022-11-02T10:15:15.501Z,32.30
2022-11-02T10:17:43.857Z,32.50
2022-11-02T10:20:36.280Z,32.00
2022-11-02T10:23:08.753Z,31.40
2022-11-02T10:25:37.439Z,31.70
2022-11-02T10:28:12.241Z,31.90
2022-11-02T10:30:39.877Z,31.80
2022-11-02T10:33:15.097Z,31.20
2022-11-02T10:35:57.667Z,31.20
2022-11-02T10:39:02.425Z,31.10
2022-11-02T10:42:13.003Z,29.50
2022-11-02T10:45:03.755Z,27.60
2022-11-02T10:47:58.553Z,26.80
2022-11-02T10:50:46.124Z,27.90
2022-11-02T10:53:39.688Z,28.10
2022-11-02T10:56:18.886Z,29.70
2022-11-02T10:59:15.821Z,31.40
2022-11-02T11:01:58.847Z,32.00
2022-11-02T11:04:28.111Z,31.90
2022-11-02T11:06:56.616Z,32.50
2022-11-02T11:09:25.029Z,33.10
2022-11-02T11:12:03.118Z,32.50
2022-11-02T11:20:35.209Z,31.80
2022-11-02T11:23:27.965Z,30.90
2022-11-02T11:26:28.187Z,29.60
2022-11-02T11:28:56.698Z,28.90
2022-11-02T11:31:24.216Z,29.10
2022-11-02T11:33:55.983Z,29.20
2022-11-02T11:36:34.272Z,27.90
2022-11-02T11:39:22.704Z,26.10
2022-11-02T11:41:49.467Z,26.30
2022-11-02T11:44:16.458Z,25.90
2022-11-02T11:46:45.069Z,24.90
2022-11-02T11:49:41.705Z,24.00
2022-11-02T11:52:26.995Z,23.30
2022-11-02T11:55:00.002Z,23.70
2022-11-02T11:57:32.880Z,25.40
2022-11-02T12:00:04.704Z,25.80
2022-11-02T12:02:36.824Z,25.80
2022-11-02T12:05:17.366Z,27.40
2022-11-02T12:08:05.949Z,28.10
2022-11-02T12:10:58.389Z,29.00
2022-11-02T12:13:57.196Z,28.50
2022-11-02T12:16:48.636Z,26.90
2022-11-02T12:19:34.250Z,26.30
2022-11-02T12:22:31.915Z,25.70
2022-11-02T12:25:20.844Z,25.20
2022-11-02T12:27:54.905Z,25.00
2022-11-02T12:30:53.701Z,25.50
2022-11-02T12:33:35.401Z,27.10
2022-11-02T12:36:11.800Z,28.50
2022-11-02T12:38:47.542Z,27.60
2022-11-02T12:41:38.897Z,26.10
2022-11-02T12:44:23.502Z,24.20
2022-11-02T12:46:59.836Z,22.90
2022-11-02T12:50:00.284Z,23.10
2022-11-02T12:52:35.331Z,23.60
2022-11-02T12:55:04.852Z,24.50
2022-11-02T12:57:36.981Z,26.00
2022-11-02T13:00:17.129Z,26.60
2022-11-02T13:03:05.834Z,27.00
2022-11-02T13:05:41.067Z,27.90
2022-11-02T13:08:22.566Z,27.40
2022-11-02T13:10:57.144Z,27.80
2022-11-02T13:13:42.282Z,28.40
2022-11-02T13:16:10.753Z,29.00
2022-11-02T13:18:49.607Z,29.50
2022-11-02T13:21:22.649Z,30.10
2022-11-02T13:23:57.813Z,30.20
2022-11-02T13:26:37.755Z,30.30
2022-11-02T13:29:17.356Z,29.40
2022-11-02T13:32:05.825Z,29.50
2022-11-02T13:34:36.607Z,28.80
2022-11-02T13:37:11.341Z,27.40
2022-11-02T13:39:51.573Z,26.00
2022-11-02T13:42:26.452Z,25.40
2022-11-02T13:45:29.198Z,24.50
2022-11-02T13:48:22.200Z,23.50
2022-11-02T13:50:52.234Z,22.30
2022-11-02T13:53:29.000Z,22.20
2022-11-02T13:56:08.489Z,23.20
2022-11-02T13:58:41.321Z,24.60
2022-11-02T14:01:10.442Z,25.00
2022-11-02T14:03:58.835Z,25.40
2022-11-02T14:06:30.268Z,25.40
2022-11-02T14:09:04.445Z,26.00
2022-11-02T14:11:36.293Z,26.00
2022-11-02T14:14:02.882Z,25.80
2022-11-02T14:16:48.252Z,26.10
2022-11-02T14:19:19.213Z,26.00
2022-11-02T14:21:49.087Z,25.20
2022-11-02T14:24:34.230Z,24.30
2022-11-02T14:27:19.133Z,23.30
2022-11-02T14:29:45.722Z,22.20
2022-11-02T14:32:21.206Z,21.30
2022-11-02T14:35:16.250Z,20.70
2022-11-02T14:37:59.233Z,20.60
2022-11-02T14:40:50.299Z,20.60
2022-11-02T14:43:46.881Z,20.40
2022-11-02T14:46:22.708Z,20.70
2022-11-02T14:48:56.305Z,21.00
2022-11-02T14:51:32.463Z,21.10
2022-11-02T14:54:19.587Z,21.10
2022-11-02T14:57:03.810Z,20.90
2022-11-02T14:59:37.617Z,20.70
2022-11-02T15:02:15.089Z,20.40
2022-11-02T15:05:00.083Z,20.10
2022-11-02T15:07:42.087Z,19.60
2022-11-02T15:10:17.705Z,19.40
2022-11-02T15:12:46.540Z,19.10
2022-11-02T15:15:36.405Z,18.70
2022-11-02T15:18:23.760Z,18.40
2022-11-02T15:21:17.107Z,18.20
2022-11-02T15:24:13.843Z,18.00
2022-11-02T15:26:46.312Z,17.80
2022-11-02T15:29:21.005Z,17.60
2022-11-02T15:31:54.813Z,17.40
2022-11-02T15:34:36.070Z,17.30
2022-11-02T15:37:03.911Z,17.10
2022-11-02T15:39:31.542Z,17.00
2022-11-02T15:42:16.125Z,16.90
2022-11-02T15:45:14.175Z,16.70
2022-11-02T15:47:52.867Z,16.60
2022-11-02T15:50:37.978Z,16.40
2022-11-02T15:53:59.749Z,16.20
2022-11-02T15:56:53.564Z,15.90
2022-11-02T15:59:26.050Z,15.60
2022-11-02T16:02:28.192Z,15.40
2022-11-02T16:04:58.672Z,15.10
2022-11-02T16:07:33.388Z,15.00
2022-11-02T16:10:34.523Z,14.80
2022-11-02T16:13:18.485Z,14.50
2022-11-02T16:15:49.582Z,14.30
2022-11-02T16:18:27.429Z,14.10
2022-11-02T16:21:01.941Z,13.90
2022-11-02T16:23:34.820Z,13.80
2022-11-02T16:26:04.468Z,13.70
2022-11-02T16:28:35.685Z,13.50
2022-11-02T16:31:17.344Z,13.40
2022-11-02T16:33:50.871Z,13.20
2022-11-02T16:36:32.387Z,13.10
2022-11-02T16:39:18.967Z,12.90
2022-11-02T16:41:50.879Z,12.80
2022-11-02T16:44:21.718Z,12.70
2022-11-02T16:46:49.896Z,12.70
2022-11-02T16:49:21.747Z,12.60
2022-11-02T16:52:00.556Z,12.40
2022-11-02T16:54:42.111Z,12.30
2022-11-02T16:57:18.324Z,12.20
2022-11-02T16:59:57.804Z,12.10
2022-11-02T17:02:40.695Z,12.00
2022-11-02T17:05:16.207Z,11.90
2022-11-02T17:07:47.122Z,11.80
2022-11-02T17:10:25.216Z,11.70
2022-11-02T17:12:51.986Z,11.60
2022-11-02T17:15:28.277Z,11.50
2022-11-02T17:18:09.949Z,11.50
2022-11-02T17:20:38.712Z,11.40
2022-11-02T17:23:28.100Z,11.30
2022-11-02T17:26:14.653Z,11.30
2022-11-02T17:28:46.097Z,11.20
2022-11-02T17:31:19.550Z,11.10
2022-11-02T17:33:46.769Z,11.00
2022-11-02T17:36:14.870Z,10.90
2022-11-02T17:38:41.807Z,10.90
2022-11-02T17:41:34.102Z,10.80
2022-11-02T17:44:00.742Z,10.80
2022-11-02T17:46:27.490Z,10.70
2022-11-02T17:48:54.128Z,10.60
2022-11-02T17:51:23.105Z,10.60
2022-11-02T17:53:50.364Z,10.50
2022-11-02T17:56:17.066Z,10.40
2022-11-02T17:58:43.710Z,10.30
2022-11-02T18:01:12.691Z,10.30
2022-11-02T18:03:39.627Z,10.30
2022-11-02T18:06:06.614Z,10.20
2022-11-02T18:08:53.210Z,10.20
2022-11-02T18:11:25.835Z,10.20
2022-11-02T18:13:53.346Z,10.20
2022-11-02T18:16:20.001Z,10.10
2022-11-02T18:18:46.701Z,10.10
2022-11-02T18:21:13.384Z,10.10
2022-11-02T18:23:41.278Z,10.00
2022-11-02T18:26:11.334Z,10.00
2022-11-02T18:28:38.299Z,10.00
2022-11-02T18:31:09.084Z,9.90
2022-11-02T18:33:35.956Z,9.80
2022-11-02T18:36:04.809Z,9.80
2022-11-02T18:38:31.597Z,9.70
2022-11-02T18:41:26.813Z,9.70
2022-11-02T18:43:57.999Z,9.70
2022-11-02T18:46:30.691Z,9.60
2022-11-02T18:48:57.956Z,9.40
2022-11-02T18:51:25.036Z,9.40
2022-11-02T18:54:02.615Z,9.20
2022-11-02T18:56:30.228Z,9.20
2022-11-02T18:58:57.250Z,9.10
2022-11-02T19:01:24.983Z,9.00
2022-11-02T19:03:54.358Z,9.00
2022-11-02T19:06:40.202Z,9.00
2022-11-02T19:09:20.074Z,9.00
2022-11-02T19:11:54.195Z,9.00
2022-11-02T19:14:22.272Z,9.00
2022-11-02T19:16:49.758Z,9.00
2022-11-02T19:19:16.407Z,9.00
2022-11-02T19:21:43.344Z,9.00
2022-11-02T19:24:10.300Z,9.00
2022-11-02T19:26:37.555Z,9.00
2022-11-02T19:29:06.509Z,8.90
2022-11-02T19:31:34.850Z,8.90
2022-11-02T19:34:01.706Z,8.90
2022-11-02T19:36:28.414Z,8.80
2022-11-02T19:38:55.090Z,8.80
2022-11-02T19:41:22.246Z,8.80
2022-11-02T19:43:48.985Z,8.70
2022-11-02T19:46:22.505Z,8.70
2022-11-02T19:48:49.504Z,8.70
2022-11-02T19:51:20.625Z,8.80
2022-11-02T19:53:49.995Z,8.70
2022-11-02T19:56:17.421Z,8.70
2022-11-02T19:58:45.563Z,8.60
2022-11-02T20:01:16.618Z,8.60
2022-11-02T20:03:44.029Z,8.50
2022-11-02T20:06:13.380Z,8.40
2022-11-02T20:08:40.000Z,8.40
2022-11-02T20:11:12.382Z,8.30
2022-11-02T20:13:41.355Z,8.30
2022-11-02T20:16:09.672Z,8.20
2022-11-02T20:18:38.788Z,8.10
2022-11-02T20:21:07.348Z,8.00
2022-11-02T20:23:34.483Z,8.10
2022-11-02T20:26:03.521Z,8.00
2022-11-02T20:28:30.531Z,8.00
2022-11-02T20:30:57.804Z,8.00
2022-11-02T20:33:24.886Z,7.90
2022-11-02T20:35:51.513Z,8.00
2022-11-02T20:38:18.137Z,8.00
2022-11-02T20:40:44.762Z,8.00
2022-11-02T20:43:11.417Z,8.00
2022-11-02T20:45:38.112Z,8.00
2022-11-02T20:48:05.369Z,8.10
2022-11-02T20:50:33.640Z,8.10
2022-11-02T20:53:00.348Z,8.10
2022-11-02T20:55:27.275Z,8.20
2022-11-02T20:57:53.924Z,8.20
2022-11-02T21:00:20.689Z,8.20
2022-11-02T21:02:48.001Z,8.20
2022-11-02T21:05:15.062Z,8.20
2022-11-02T21:07:41.780Z,8.10
2022-11-02T21:10:09.611Z,8.10
2022-11-02T21:12:54.856Z,8.10
2022-11-02T21:15:21.533Z,8.10
2022-11-02T21:17:48.235Z,8.10
2022-11-02T21:20:33.246Z,8.10
2022-11-02T21:23:05.608Z,8.10
2022-11-02T21:25:33.302Z,8.10
2022-11-02T21:28:00.185Z,8.10
2022-11-02T21:30:30.837Z,8.10
2022-11-02T21:32:57.705Z,8.20
2022-11-02T21:35:24.763Z,8.20
2022-11-02T21:37:56.365Z,8.20
2022-11-02T21:40:23.249Z,8.20
2022-11-02T21:42:49.913Z,8.20
2022-11-02T21:45:18.097Z,8.20
2022-11-02T21:47:45.039Z,8.20
2022-11-02T21:50:11.909Z,8.30
2022-11-02T21:52:41.052Z,8.20
2022-11-02T21:55:11.402Z,8.20
2022-11-02T21:57:38.120Z,8.20
2022-11-02T22:00:05.179Z,8.20
2022-11-02T22:02:31.828Z,8.10
2022-11-02T22:04:58.593Z,8.10
2022-11-02T22:07:25.283Z,8.00
2022-11-02T22:09:51.893Z,8.00
2022-11-02T22:12:37.332Z,7.90
2022-11-02T22:15:04.321Z,7.70
2022-11-02T22:20:17.547Z,7.70
2022-11-02T22:22:44.900Z,7.70
2022-11-02T22:25:11.532Z,7.70
2022-11-02T22:27:38.197Z,7.80
2022-11-02T22:30:05.469Z,7.80
2022-11-02T22:32:32.128Z,7.90
2022-11-02T22:34:58.756Z,7.90
2022-11-02T22:37:43.913Z,7.90
2022-11-02T22:40:10.811Z,7.90
2022-11-02T22:42:39.882Z,8.00
2022-11-02T22:45:09.433Z,8.00
2022-11-02T22:47:36.786Z,8.00
2022-11-02T22:50:03.721Z,8.00
2022-11-02T22:52:30.336Z,7.90
2022-11-02T22:54:57.005Z,7.90
2022-11-02T22:57:23.694Z,7.90
2022-11-02T22:59:50.304Z,7.90
2022-11-02T23:02:17.032Z,7.90
2022-11-02T23:04:43.696Z,7.90
2022-11-02T23:07:10.752Z,7.90
2022-11-02T23:09:37.380Z,7.90
2022-11-02T23:12:04.144Z,7.90
2022-11-02T23:14:30.785Z,7.80
2022-11-02T23:16:58.655Z,7.80
2022-11-02T23:19:31.608Z,7.80
2022-11-02T23:22:28.381Z,7.70
2022-11-02T23:25:14.791Z,7.70
2022-11-02T23:28:03.887Z,7.60
2022-11-02T23:30:51.161Z,7.50
2022-11-02T23:33:18.894Z,7.50
2022-11-02T23:36:04.521Z,7.40
2022-11-02T23:38:50.104Z,7.40
2022-11-02T23:41:17.746Z,7.40
2022-11-02T23:43:44.493Z,7.30
2022-11-02T23:46:11.260Z,7.30
2022-11-02T23:48:37.895Z,7.20
2022-11-02T23:51:23.195Z,7.20
2022-11-02T23:54:08.524Z,7.10
2022-11-02T23:56:44.454Z,7.10
2022-11-02T23:59:11.043Z,7.00
